createdAt,value
2018-06-23T00:01:08.272Z,100.00
2018-06-23T00:03:36.688Z,100.00
2018-06-23T00:06:05.144Z,100.00
2018-06-23T00:08:33.872Z,100.00
2018-06-23T00:11:02.317Z,100.00
2018-06-23T00:13:30.768Z,100.00
2018-06-23T00:15:59.229Z,100.00
2018-06-23T00:18:27.707Z,100.00
2018-06-23T00:20:56.131Z,100.00
2018-06-23T00:23:24.543Z,100.00
2018-06-23T00:25:58.201Z,100.00
2018-06-23T00:28:26.638Z,100.00
2018-06-23T00:30:55.083Z,100.00
2018-06-23T00:33:23.538Z,100.00
2018-06-23T00:35:51.964Z,100.00
2018-06-23T00:38:20.496Z,100.00
2018-06-23T00:40:48.961Z,100.00
2018-06-23T00:43:17.416Z,100.00
2018-06-23T00:45:45.860Z,100.00
2018-06-23T00:48:14.265Z,100.00
2018-06-23T00:50:42.738Z,100.00
2018-06-23T00:53:11.128Z,100.00
2018-06-23T00:55:39.595Z,100.00
2018-06-23T00:58:08.027Z,100.00
2018-06-23T01:00:36.476Z,100.00
2018-06-23T01:03:05.220Z,100.00
2018-06-23T01:05:33.653Z,100.00
2018-06-23T01:08:02.099Z,100.00
2018-06-23T01:10:30.525Z,100.00
2018-06-23T01:12:58.995Z,100.00
2018-06-23T01:15:27.490Z,100.00
2018-06-23T01:17:55.924Z,100.00
2018-06-23T01:20:24.320Z,100.00
2018-06-23T01:22:52.780Z,100.00
2018-06-23T01:26:50.621Z,100.00
2018-06-23T01:29:19.250Z,100.00
2018-06-23T01:31:47.933Z,100.00
2018-06-23T01:34:16.649Z,100.00
2018-06-23T01:36:45.919Z,100.00
2018-06-23T01:39:14.334Z,100.00
2018-06-23T01:41:42.757Z,100.00
2018-06-23T01:44:11.197Z,100.00
2018-06-23T01:46:39.651Z,100.00
2018-06-23T01:49:08.075Z,100.00
2018-06-23T01:51:36.819Z,100.00
2018-06-23T01:54:05.565Z,100.00
2018-06-23T01:56:34.184Z,100.00
2018-06-23T01:59:02.603Z,100.00
2018-06-23T02:01:31.028Z,100.00
2018-06-23T02:03:59.495Z,100.00
2018-06-23T02:06:27.931Z,100.00
2018-06-23T02:08:56.323Z,100.00
2018-06-23T02:11:24.728Z,100.00
2018-06-23T02:13:58.691Z,100.00
2018-06-23T02:16:32.362Z,100.00
2018-06-23T02:19:06.122Z,100.00
2018-06-23T02:21:39.761Z,100.00
2018-06-23T02:24:13.535Z,100.00
2018-06-23T02:26:47.232Z,100.00
2018-06-23T02:29:20.738Z,100.00
2018-06-23T02:31:54.776Z,100.00
2018-06-23T02:34:28.463Z,100.00
2018-06-23T02:36:56.952Z,100.00
2018-06-23T02:39:25.452Z,100.00
2018-06-23T02:41:53.949Z,100.00
2018-06-23T02:44:22.691Z,100.00
2018-06-23T02:46:51.107Z,100.00
2018-06-23T02:49:19.526Z,100.00
2018-06-23T02:51:47.935Z,100.00
2018-06-23T02:54:16.372Z,100.00
2018-06-23T02:56:44.801Z,100.00
2018-06-23T02:59:13.228Z,100.00
2018-06-23T03:01:41.688Z,100.00
2018-06-23T03:04:10.106Z,100.00
2018-06-23T03:06:38.537Z,100.00
2018-06-23T03:09:07.377Z,100.00
2018-06-23T03:11:35.796Z,100.00
2018-06-23T03:14:04.237Z,100.00
2018-06-23T03:16:32.799Z,100.00
2018-06-23T03:19:01.210Z,100.00
2018-06-23T03:21:29.684Z,100.00
2018-06-23T03:23:58.075Z,100.00
2018-06-23T03:26:26.521Z,100.00
2018-06-23T03:28:54.904Z,100.00
2018-06-23T03:31:23.384Z,100.00
2018-06-23T03:33:52.091Z,100.00
2018-06-23T03:36:20.526Z,100.00
2018-06-23T03:38:49.174Z,100.00
2018-06-23T03:41:17.618Z,100.00
2018-06-23T03:43:46.134Z,100.00
2018-06-23T03:46:14.589Z,100.00
2018-06-23T03:48:43.014Z,100.00
2018-06-23T03:51:11.500Z,100.00
2018-06-23T03:53:39.996Z,100.00
2018-06-23T03:56:08.486Z,100.00
2018-06-23T03:58:36.940Z,100.00
2018-06-23T04:01:08.467Z,100.00
2018-06-23T04:03:37.588Z,100.00
2018-06-23T04:06:06.159Z,100.00
2018-06-23T04:08:35.307Z,100.00
2018-06-23T04:11:03.946Z,100.00
2018-06-23T04:13:32.947Z,100.00
2018-06-23T04:16:02.060Z,100.00
2018-06-23T04:18:30.480Z,100.00
2018-06-23T04:20:59.037Z,100.00
2018-06-23T04:23:27.501Z,100.00
2018-06-23T04:25:55.919Z,100.00
2018-06-23T04:28:24.348Z,100.00
2018-06-23T04:30:52.767Z,100.00
2018-06-23T04:33:21.224Z,100.00
2018-06-23T04:35:49.630Z,100.00
2018-06-23T04:38:18.235Z,100.00
2018-06-23T04:40:46.703Z,100.00
2018-06-23T04:43:16.007Z,100.00
2018-06-23T04:45:44.612Z,100.00
2018-06-23T04:48:13.043Z,100.00
2018-06-23T04:50:41.528Z,100.00
2018-06-23T04:53:09.943Z,100.00
2018-06-23T04:55:38.383Z,100.00
2018-06-23T04:58:06.824Z,100.00
2018-06-23T05:00:35.403Z,100.00
2018-06-23T05:03:03.777Z,100.00
2018-06-23T05:05:32.205Z,100.00
2018-06-23T05:08:00.656Z,100.00
2018-06-23T05:10:31.629Z,100.00
2018-06-23T05:13:00.311Z,100.00
2018-06-23T05:15:28.767Z,100.00
2018-06-23T05:17:57.208Z,100.00
2018-06-23T05:20:25.670Z,100.00
2018-06-23T05:22:54.088Z,100.00
2018-06-23T05:25:22.508Z,100.00
2018-06-23T05:27:50.987Z,100.00
2018-06-23T05:30:19.462Z,100.00
2018-06-23T05:32:47.923Z,100.00
2018-06-23T05:35:16.350Z,100.00
2018-06-23T05:37:44.868Z,100.00
2018-06-23T05:40:13.277Z,100.00
2018-06-23T05:42:41.707Z,100.00
2018-06-23T05:45:10.182Z,100.00
2018-06-23T05:47:38.608Z,100.00
2018-06-23T05:50:07.061Z,100.00
2018-06-23T05:52:35.493Z,100.00
2018-06-23T05:55:03.941Z,99.39
2018-06-23T05:57:32.387Z,99.50
2018-06-23T06:00:00.830Z,99.90
2018-06-23T06:02:29.267Z,100.00
2018-06-23T06:04:57.707Z,98.59
2018-06-23T06:07:26.131Z,94.19
2018-06-23T06:09:54.548Z,99.54
2018-06-23T06:12:22.983Z,100.00
2018-06-23T06:14:51.499Z,98.36
2018-06-23T06:17:37.583Z,98.48
2018-06-23T06:20:10.124Z,96.94
2018-06-23T06:22:40.746Z,97.12
2018-06-23T06:25:09.972Z,95.27
2018-06-23T06:27:38.547Z,96.33
2018-06-23T06:30:09.438Z,94.20
2018-06-23T06:32:38.343Z,95.39
2018-06-23T06:35:07.435Z,94.51
2018-06-23T06:37:36.253Z,96.43
2018-06-23T06:40:05.493Z,94.96
2018-06-23T06:42:34.183Z,93.78
2018-06-23T06:45:02.762Z,91.87
2018-06-23T06:47:31.186Z,93.71
2018-06-23T06:49:59.784Z,90.23
2018-06-23T06:52:28.240Z,92.68
2018-06-23T06:54:56.811Z,89.03
2018-06-23T06:57:25.243Z,89.51
2018-06-23T06:59:53.691Z,90.03
2018-06-23T07:02:22.112Z,90.44
2018-06-23T07:04:50.665Z,90.33
2018-06-23T07:07:19.108Z,86.90
2018-06-23T07:09:47.528Z,86.28
2018-06-23T07:12:15.961Z,87.90
2018-06-23T07:14:44.510Z,88.04
2018-06-23T07:17:13.042Z,87.92
2018-06-23T07:19:41.486Z,85.75
2018-06-23T07:22:09.920Z,87.34
2018-06-23T07:24:38.698Z,86.01
2018-06-23T07:27:07.644Z,84.63
2018-06-23T07:29:36.118Z,84.10
2018-06-23T07:32:04.955Z,86.71
2018-06-23T07:34:33.460Z,84.96
2018-06-23T07:37:01.842Z,82.85
2018-06-23T07:39:30.299Z,81.62
2018-06-23T07:41:58.736Z,81.62
2018-06-23T07:44:27.223Z,80.28
2018-06-23T07:46:55.652Z,81.96
2018-06-23T07:49:24.149Z,76.88
2018-06-23T07:51:52.595Z,80.13
2018-06-23T07:54:20.980Z,78.17
2018-06-23T07:56:49.667Z,76.76
2018-06-23T07:59:18.100Z,75.87
2018-06-23T08:01:46.552Z,74.32
2018-06-23T08:04:14.984Z,74.90
2018-06-23T08:06:43.379Z,75.62
2018-06-23T08:09:11.835Z,74.71
2018-06-23T08:11:40.269Z,75.88
2018-06-23T08:14:08.707Z,76.06
2018-06-23T08:16:37.364Z,76.25
2018-06-23T08:19:06.240Z,73.23
2018-06-23T08:21:34.677Z,70.05
2018-06-23T08:24:03.174Z,71.38
2018-06-23T08:26:32.049Z,71.63
2018-06-23T08:29:00.400Z,70.24
2018-06-23T08:31:28.806Z,69.04
2018-06-23T08:33:57.256Z,69.37
2018-06-23T08:36:25.918Z,68.80
2018-06-23T08:40:23.431Z,68.34
2018-06-23T08:42:51.879Z,68.82
2018-06-23T08:45:20.612Z,65.59
2018-06-23T08:47:49.262Z,64.74
2018-06-23T08:50:17.662Z,65.95
2018-06-23T08:52:46.076Z,66.30
2018-06-23T08:55:14.555Z,65.31
2018-06-23T08:57:42.992Z,64.32
2018-06-23T09:00:11.449Z,65.24
2018-06-23T09:02:39.879Z,62.33
2018-06-23T09:05:08.312Z,61.27
2018-06-23T09:07:36.852Z,62.81
2018-06-23T09:10:05.265Z,63.89
2018-06-23T09:12:33.669Z,64.20
2018-06-23T09:15:02.075Z,65.67
2018-06-23T09:17:30.510Z,64.69
2018-06-23T09:19:58.915Z,65.39
2018-06-23T09:22:27.463Z,65.93
2018-06-23T09:24:56.047Z,66.34
2018-06-23T09:27:24.489Z,65.76
2018-06-23T09:29:52.959Z,65.27
2018-06-23T09:32:21.385Z,64.43
2018-06-23T09:34:50.048Z,62.16
2018-06-23T09:37:18.458Z,63.49
2018-06-23T09:39:49.829Z,64.06
2018-06-23T09:42:18.443Z,63.11
2018-06-23T09:44:46.909Z,61.93
2018-06-23T09:47:15.622Z,61.05
2018-06-23T09:49:44.068Z,60.75
2018-06-23T09:52:12.512Z,61.87
2018-06-23T09:54:41.099Z,61.81
2018-06-23T09:57:09.541Z,62.16
2018-06-23T09:59:39.019Z,62.15
2018-06-23T10:02:07.772Z,61.55
2018-06-23T10:04:36.455Z,62.50
2018-06-23T10:07:05.328Z,60.45
2018-06-23T10:09:33.808Z,62.50
2018-06-23T10:12:02.215Z,59.12
2018-06-23T10:14:30.875Z,58.93
2018-06-23T10:16:59.465Z,57.38
2018-06-23T10:19:27.856Z,57.34
2018-06-23T10:21:56.289Z,56.88
2018-06-23T10:24:24.901Z,58.54
2018-06-23T10:26:53.304Z,55.96
2018-06-23T10:29:21.914Z,55.07
2018-06-23T10:31:50.663Z,56.35
2018-06-23T10:34:19.357Z,53.69
2018-06-23T10:36:47.801Z,55.13
2018-06-23T10:39:16.271Z,52.07
2018-06-23T10:41:44.675Z,53.64
2018-06-23T10:44:13.086Z,54.39
2018-06-23T10:46:41.548Z,53.50
2018-06-23T10:49:10.146Z,53.76
2018-06-23T10:51:38.577Z,53.34
2018-06-23T10:54:06.995Z,56.23
2018-06-23T10:56:35.399Z,54.60
2018-06-23T10:59:03.975Z,56.41
2018-06-23T11:01:32.430Z,54.76
2018-06-23T11:04:00.838Z,53.46
2018-06-23T11:06:29.229Z,53.02
2018-06-23T11:08:58.077Z,53.02
2018-06-23T11:11:26.864Z,51.04
2018-06-23T11:13:55.308Z,51.46
2018-06-23T11:16:23.728Z,49.93
2018-06-23T11:18:52.146Z,49.09
2018-06-23T11:21:20.561Z,48.59
2018-06-23T11:23:49.255Z,48.89
2018-06-23T11:26:17.674Z,50.06
2018-06-23T11:28:46.331Z,49.11
2018-06-23T11:31:14.746Z,50.21
2018-06-23T11:33:43.223Z,49.83
2018-06-23T11:36:11.655Z,52.01
2018-06-23T11:38:40.088Z,50.98
2018-06-23T11:41:08.525Z,53.71
2018-06-23T11:43:37.243Z,53.11
2018-06-23T11:46:05.748Z,49.64
2018-06-23T11:48:34.139Z,51.13
2018-06-23T11:51:02.580Z,51.03
2018-06-23T11:53:30.995Z,49.15
2018-06-23T11:55:59.607Z,49.52
2018-06-23T11:58:28.056Z,48.93
2018-06-23T12:00:56.486Z,50.02
2018-06-23T12:03:24.953Z,51.02
2018-06-23T12:12:37.600Z,43.50
2018-06-23T12:15:06.097Z,47.86
2018-06-23T12:17:34.536Z,45.76
2018-06-23T12:20:02.995Z,47.13
2018-06-23T12:22:31.589Z,47.13
2018-06-23T12:25:00.009Z,48.89
2018-06-23T12:27:28.453Z,49.99
2018-06-23T12:29:56.850Z,48.59
2018-06-23T12:32:25.259Z,49.03
2018-06-23T12:34:53.720Z,47.49
2018-06-23T12:37:22.152Z,48.08
2018-06-23T12:39:50.599Z,50.86
2018-06-23T12:42:19.033Z,52.14
2018-06-23T12:44:47.488Z,53.41
2018-06-23T12:47:15.947Z,53.21
2018-06-23T12:49:44.359Z,54.01
2018-06-23T12:52:12.803Z,53.74
2018-06-23T12:54:41.235Z,54.04
2018-06-23T12:57:09.713Z,55.09
2018-06-23T12:59:39.342Z,56.07
2018-06-23T13:02:06.880Z,54.70
2018-06-23T13:04:35.274Z,52.83
2018-06-23T13:07:03.684Z,54.15
2018-06-23T13:09:32.097Z,52.48
2018-06-23T13:12:00.530Z,53.17
2018-06-23T13:14:29.059Z,50.49
2018-06-23T13:16:57.511Z,49.97
2018-06-23T13:19:25.910Z,51.11
2018-06-23T13:21:54.358Z,51.20
2018-06-23T13:24:22.778Z,50.28
2018-06-23T13:26:51.167Z,51.36
2018-06-23T13:29:19.647Z,52.90
2018-06-23T13:31:48.062Z,53.46
2018-06-23T13:34:16.696Z,55.20
2018-06-23T13:36:45.131Z,53.06
2018-06-23T13:39:13.683Z,55.12
2018-06-23T13:41:42.094Z,52.55
2018-06-23T13:44:10.555Z,51.91
2018-06-23T13:46:39.032Z,53.21
2018-06-23T13:49:07.520Z,51.86
2018-06-23T13:51:36.198Z,52.21
2018-06-23T13:54:04.751Z,53.68
2018-06-23T13:56:33.219Z,52.91
2018-06-23T13:59:01.964Z,54.39
2018-06-23T14:01:30.656Z,55.60
2018-06-23T14:03:59.106Z,53.21
2018-06-23T14:06:27.656Z,56.00
2018-06-23T14:08:56.108Z,56.94
2018-06-23T14:11:25.163Z,56.84
2018-06-23T14:13:53.816Z,57.03
2018-06-23T14:16:22.447Z,55.54
2018-06-23T14:18:50.894Z,57.11
2018-06-23T14:21:19.297Z,57.03
2018-06-23T14:23:47.727Z,56.24
2018-06-23T14:26:16.169Z,55.83
2018-06-23T14:28:44.998Z,56.55
2018-06-23T14:31:13.613Z,55.62
2018-06-23T14:33:42.037Z,55.07
2018-06-23T14:36:10.518Z,56.18
2018-06-23T14:38:38.970Z,55.99
2018-06-23T14:41:07.491Z,56.48
2018-06-23T14:43:36.280Z,55.46
2018-06-23T14:46:05.138Z,56.00
2018-06-23T14:48:33.623Z,55.51
2018-06-23T14:51:02.023Z,56.43
2018-06-23T14:53:30.627Z,55.87
2018-06-23T14:55:59.177Z,56.15
2018-06-23T14:58:27.704Z,54.48
2018-06-23T15:00:56.224Z,52.88
2018-06-23T15:03:24.696Z,53.91
2018-06-23T15:05:53.214Z,53.63
2018-06-23T15:08:33.164Z,53.04
2018-06-23T15:11:12.712Z,52.64
2018-06-23T15:15:10.761Z,52.94
2018-06-23T15:17:39.490Z,52.54
2018-06-23T15:20:08.147Z,52.95
2018-06-23T15:22:36.604Z,52.13
2018-06-23T15:25:05.227Z,53.04
2018-06-23T15:27:33.692Z,51.05
2018-06-23T15:30:02.318Z,48.44
2018-06-23T15:32:30.785Z,49.16
2018-06-23T15:34:59.244Z,48.30
2018-06-23T15:37:27.930Z,49.27
2018-06-23T15:39:56.404Z,50.39
2018-06-23T15:42:24.840Z,50.22
2018-06-23T15:44:53.259Z,51.84
2018-06-23T15:47:21.808Z,51.05
2018-06-23T15:49:50.202Z,51.96
2018-06-23T15:52:18.775Z,52.99
2018-06-23T15:54:47.485Z,53.00
2018-06-23T15:57:16.324Z,52.58
2018-06-23T15:59:44.951Z,52.25
2018-06-23T16:02:13.452Z,53.20
2018-06-23T16:04:42.045Z,53.11
2018-06-23T16:07:10.512Z,52.45
2018-06-23T16:09:39.055Z,52.07
2018-06-23T16:12:07.538Z,52.19
2018-06-23T16:14:36.032Z,51.35
2018-06-23T16:17:04.799Z,50.77
2018-06-23T16:19:33.372Z,50.55
2018-06-23T16:22:01.820Z,51.17
2018-06-23T16:24:30.442Z,50.32
2018-06-23T16:26:59.276Z,50.63
2018-06-23T16:29:28.089Z,52.13
2018-06-23T16:31:56.640Z,50.52
2018-06-23T16:34:25.278Z,49.27
2018-06-23T16:36:54.293Z,50.50
2018-06-23T16:39:22.837Z,50.62
2018-06-23T16:41:51.567Z,50.89
2018-06-23T16:44:20.600Z,50.42
2018-06-23T16:46:49.597Z,47.99
2018-06-23T16:49:18.221Z,48.56
2018-06-23T16:51:46.639Z,46.10
2018-06-23T16:54:15.169Z,46.97
2018-06-23T16:56:43.663Z,47.33
2018-06-23T16:59:12.372Z,46.98
2018-06-23T17:01:40.821Z,47.71
2018-06-23T17:04:09.368Z,47.30
2018-06-23T17:06:38.029Z,47.41
2018-06-23T17:09:09.036Z,47.24
2018-06-23T17:11:37.485Z,48.67
2018-06-23T17:14:06.203Z,49.12
2018-06-23T17:16:34.932Z,49.16
2018-06-23T17:19:03.705Z,49.95
2018-06-23T17:21:32.636Z,50.36
2018-06-23T17:24:01.297Z,50.76
2018-06-23T17:26:29.725Z,50.59
2018-06-23T17:28:58.674Z,50.18
2018-06-23T17:31:27.454Z,51.63
2018-06-23T17:33:56.177Z,51.67
2018-06-23T17:36:24.953Z,52.44
2018-06-23T17:38:53.523Z,52.96
2018-06-23T17:41:22.016Z,52.99
2018-06-23T17:43:50.432Z,53.60
2018-06-23T17:46:18.888Z,54.04
2018-06-23T17:48:47.908Z,53.99
2018-06-23T17:51:16.584Z,54.30
2018-06-23T17:53:45.079Z,53.54
2018-06-23T17:56:13.496Z,54.43
2018-06-23T17:58:41.950Z,54.09
2018-06-23T18:01:10.392Z,53.17
2018-06-23T18:03:38.835Z,53.56
2018-06-23T18:06:07.349Z,54.08
2018-06-23T18:08:35.753Z,53.59
2018-06-23T18:11:04.295Z,55.07
2018-06-23T18:13:32.706Z,54.57
2018-06-23T18:16:01.139Z,55.76
2018-06-23T18:18:29.762Z,56.16
2018-06-23T18:20:58.143Z,56.84
2018-06-23T18:23:26.590Z,55.13
2018-06-23T18:25:55.017Z,54.92
2018-06-23T18:28:23.827Z,55.29
2018-06-23T18:30:52.307Z,55.46
2018-06-23T18:33:21.429Z,55.25
2018-06-23T18:35:50.956Z,56.00
2018-06-23T18:38:19.826Z,54.58
2018-06-23T18:40:49.175Z,53.81
2018-06-23T18:43:17.595Z,54.99
2018-06-23T18:45:46.279Z,55.75
2018-06-23T18:48:15.371Z,56.60
2018-06-23T18:50:44.309Z,56.31
2018-06-23T18:53:12.999Z,58.16
2018-06-23T18:55:41.476Z,57.10
2018-06-23T18:58:09.916Z,58.16
2018-06-23T19:00:38.384Z,60.02
2018-06-23T19:03:06.819Z,58.42
2018-06-23T19:05:35.281Z,57.35
2018-06-23T19:08:03.730Z,59.24
2018-06-23T19:10:32.108Z,60.54
2018-06-23T19:13:00.924Z,60.35
2018-06-23T19:15:29.368Z,62.56
2018-06-23T19:17:58.073Z,60.90
2018-06-23T19:20:26.495Z,61.47
2018-06-23T19:22:55.311Z,61.05
2018-06-23T19:25:24.053Z,59.88
2018-06-23T19:27:52.718Z,61.09
2018-06-23T19:30:21.467Z,61.29
2018-06-23T19:32:49.915Z,62.07
2018-06-23T19:35:18.472Z,61.80
2018-06-23T19:37:47.065Z,62.16
2018-06-23T19:40:15.664Z,62.73
2018-06-23T19:42:44.148Z,63.38
2018-06-23T19:45:12.636Z,62.81
2018-06-23T19:47:41.087Z,63.78
2018-06-23T19:50:09.568Z,64.61
2018-06-23T19:52:38.022Z,64.47
2018-06-23T19:55:06.812Z,64.76
2018-06-23T19:57:35.377Z,63.84
2018-06-23T20:00:04.968Z,63.76
2018-06-23T20:02:33.459Z,65.48
2018-06-23T20:05:01.923Z,65.64
2018-06-23T20:07:30.599Z,66.32
2018-06-23T20:09:59.081Z,64.23
2018-06-23T20:12:27.463Z,65.30
2018-06-23T20:14:55.975Z,66.74
2018-06-23T20:17:24.450Z,68.41
2018-06-23T20:19:52.863Z,67.59
2018-06-23T20:22:21.616Z,67.22
2018-06-23T20:24:50.011Z,68.20
2018-06-23T20:27:18.639Z,67.57
2018-06-23T20:29:47.091Z,66.64
2018-06-23T20:32:16.143Z,67.42
2018-06-23T20:34:44.973Z,66.07
2018-06-23T20:37:13.518Z,66.18
2018-06-23T20:39:41.952Z,66.44
2018-06-23T20:42:10.479Z,66.73
2018-06-23T20:44:38.878Z,67.03
2018-06-23T20:47:07.368Z,66.64
2018-06-23T20:49:36.036Z,66.61
2018-06-23T20:52:04.703Z,68.77
2018-06-23T20:54:33.219Z,68.33
2018-06-23T20:57:02.416Z,67.99
2018-06-23T20:59:31.297Z,67.68
2018-06-23T21:02:00.172Z,68.07
2018-06-23T21:04:28.838Z,68.11
2018-06-23T21:06:57.303Z,68.96
2018-06-23T21:09:26.272Z,68.93
2018-06-23T21:11:54.731Z,68.54
2018-06-23T21:15:25.984Z,69.76
2018-06-23T21:17:54.601Z,69.46
2018-06-23T21:20:23.475Z,70.13
2018-06-23T21:22:51.923Z,70.35
2018-06-23T21:25:20.312Z,70.28
2018-06-23T21:27:48.727Z,71.63
2018-06-23T21:30:17.159Z,71.11
2018-06-23T21:32:45.555Z,71.62
2018-06-23T21:35:14.035Z,72.63
2018-06-23T21:37:42.582Z,72.03
2018-06-23T21:40:11.320Z,71.78
2018-06-23T21:44:09.123Z,72.54
2018-06-23T21:46:37.567Z,72.41
2018-06-23T21:49:06.409Z,71.73
2018-06-23T21:51:34.859Z,72.71
2018-06-23T21:54:03.327Z,72.11
2018-06-23T21:56:31.716Z,73.34
2018-06-23T21:59:00.181Z,73.66
2018-06-23T22:01:28.847Z,73.78
2018-06-23T22:03:57.297Z,72.93
2018-06-23T22:06:25.809Z,73.91
2018-06-23T22:08:54.462Z,74.59
2018-06-23T22:11:23.142Z,74.41
2018-06-23T22:13:51.606Z,75.45
2018-06-23T22:16:20.063Z,75.80
2018-06-23T22:18:48.492Z,74.38
2018-06-23T22:21:16.897Z,76.35
2018-06-23T22:23:45.299Z,76.18
2018-06-23T22:26:13.869Z,76.72
2018-06-23T22:28:42.418Z,76.23
2018-06-23T22:31:11.091Z,75.66
2018-06-23T22:33:39.556Z,76.81
2018-06-23T22:36:07.975Z,76.19
2018-06-23T22:38:36.428Z,77.01
2018-06-23T22:41:04.870Z,76.94
2018-06-23T22:43:33.282Z,77.37
2018-06-23T22:46:01.732Z,76.62
2018-06-23T22:48:30.137Z,77.50
2018-06-23T22:50:58.608Z,77.31
2018-06-23T22:53:27.283Z,77.19
2018-06-23T22:55:55.722Z,77.76
2018-06-23T22:58:24.191Z,78.25
2018-06-23T23:00:52.608Z,77.63
2018-06-23T23:03:21.095Z,78.38
2018-06-23T23:05:49.532Z,79.25
2018-06-23T23:08:17.935Z,78.94
2018-06-23T23:10:46.427Z,79.62
2018-06-23T23:13:14.873Z,80.02
2018-06-23T23:15:43.539Z,80.92
2018-06-23T23:18:11.923Z,80.15
2018-06-23T23:20:40.397Z,80.35
2018-06-23T23:23:08.947Z,80.22
2018-06-23T23:25:37.385Z,80.47
2018-06-23T23:28:05.864Z,81.53
2018-06-23T23:30:34.276Z,81.09
2018-06-23T23:33:02.696Z,81.65
2018-06-23T23:35:31.133Z,82.31
2018-06-23T23:37:59.680Z,83.67
2018-06-23T23:40:28.141Z,83.02
2018-06-23T23:42:56.624Z,83.64
2018-06-23T23:45:25.079Z,84.27
2018-06-23T23:47:53.533Z,84.43
2018-06-23T23:50:22.055Z,84.81
2018-06-23T23:52:50.479Z,83.33
2018-06-23T23:55:18.934Z,84.47
2018-06-23T23:57:47.379Z,84.52
